Friday, December 14, 2018, 7:20 PM EST
Back to Local

KPQI, Presque Isle

Location: Presque Isle, ME, United States Lat: 46.683
Local Time: 7:20 PM EST ( 0:20 GMT) Lon: -68.05
Time Zone: US/Eastern Elev: 534 ft

Show me the last for .
Show Decoded

2018-12-14 18:43 METAR KPQI 142343Z AUTO 18009KT 8SM -SN FEW027 SCT045 OVC075 M02/M03 A3018 RMK
                 AO2 P0000 FZRANO =
2018-12-14 17:56 METAR KPQI 142256Z AUTO 00000KT 7SM -SN OVC029 M03/M06 A3020 RMK AO2 SNB51
                 SLP275 P0000 T10281061 FZRANO =
2018-12-14 16:56 METAR KPQI 142156Z AUTO 14004KT 10SM BKN035 OVC055 M04/M08 A3023 RMK AO2 SLP284
                 T10391078 FZRANO =
2018-12-14 15:56 METAR KPQI 142056Z AUTO 14004KT 8SM OVC050 M05/M09 A3025 RMK AO2 SLP290
                 T10501094 56025 FZRANO =
2018-12-14 14:56 METAR KPQI 141956Z AUTO 15007KT 10SM BKN035 OVC050 M06/M11 A3027 RMK AO2 SLP299
                 T10611106 FZRANO =
2018-12-14 13:56 METAR KPQI 141856Z AUTO 15009KT 10SM SCT033 OVC047 M07/M12 A3029 RMK AO2 SLP306
                 T10721122 FZRANO =
2018-12-14 12:56 METAR KPQI 141756Z AUTO 15008KT 10SM BKN031 OVC047 M08/M13 A3032 RMK AO2
                 SNB1659E49 SLP316 P0000 60000 T10781128 11078 21144 56033 FZRANO =
2018-12-14 12:39 METAR KPQI 141739Z AUTO 14010KT 9SM -SN OVC031 M08/M13 A3032 RMK AO2 SNB1659
                 P0000 FZRANO =
2018-12-14 11:56 METAR KPQI 141656Z AUTO 15007KT 10SM BKN022 OVC029 M08/M13 A3034 RMK AO2 SLP322
                 T10831133 FZRANO =
2018-12-14 11:23 METAR KPQI 141623Z AUTO 15004KT 10SM BKN020 BKN040 M09/M13 A3036 RMK AO2 FZRANO
                 =
2018-12-14 10:56 METAR KPQI 141556Z AUTO 15008KT 10SM SCT020 OVC034 M09/M14 A3035 RMK AO2 PRESFR
                 SLP327 T10941139 FZRANO =
2018-12-14 09:56 METAR KPQI 141456Z AUTO 15005KT 10SM OVC018 M11/M15 A3042 RMK AO2 SLP349
                 T11111150 58008 FZRANO =
2018-12-14 08:56 METAR KPQI 141356Z AUTO 23005KT 10SM OVC025 M12/M15 A3042 RMK AO2 SLP351
                 T11221150 FZRANO =
2018-12-14 08:45 METAR KPQI 141345Z AUTO VRB03KT 4SM HZ OVC025 M12/M16 A3042 RMK AO2 FZRANO =
2018-12-14 08:38 METAR KPQI 141338Z AUTO VRB04KT 1 1/2SM HZ OVC025 M12/M15 A3042 RMK AO2 VIS
                 1/2V5 FZRANO =
2018-12-14 08:23 METAR KPQI 141323Z AUTO VRB04KT 1/2SM FZFG SCT018 OVC025 M13/M15 A3043 RMK AO2
                 VIS M1/4V5 FZRANO RVRNO =
2018-12-14 07:56 METAR KPQI 141256Z AUTO 18003KT 10SM OVC025 M13/M17 A3044 RMK AO2 SLP357
                 T11331167 FZRANO =
2018-12-14 06:56 METAR KPQI 141156Z AUTO 00000KT 10SM OVC027 M14/M17 A3044 RMK AO2 SLP357 7////
                 T11441172 11144 21250 53002 FZRANO =
2018-12-14 05:56 METAR KPQI 141056Z AUTO 00000KT 10SM OVC023 M16/M19 A3042 RMK AO2 SLP351
                 T11561189 FZRANO =
2018-12-14 04:56 METAR KPQI 140956Z AUTO 00000KT 10SM OVC027 M19/M22 A3042 RMK AO2 SLP352
                 T11941222 FZRANO =
2018-12-14 04:12 METAR KPQI 140912Z AUTO 00000KT 10SM BKN027 M23/M26 A3043 RMK AO2 FZRANO =
2018-12-14 03:56 METAR KPQI 140856Z AUTO 00000KT 10SM FEW027 M23/M26 A3043 RMK AO2 SLP356
                 T12331261 58008 FZRANO =
2018-12-14 02:56 METAR KPQI 140756Z AUTO 00000KT 10SM CLR M24/M27 A3045 RMK AO2 SLP359 T12441272
                 FZRANO =
2018-12-14 01:56 METAR KPQI 140656Z AUTO 00000KT 10SM CLR M24/M27 A3045 RMK AO2 SLP362 T12441267
                 FZRANO =
2018-12-14 00:56 METAR KPQI 140556Z AUTO VRB03KT 10SM CLR M23/M26 A3046 RMK AO2 SLP364 T12281256
                 11189 21244 55003 FZRANO =
2018-12-13 23:56 METAR KPQI 140456Z AUTO 00000KT 10SM CLR M24/M27 A3045 RMK AO2 SLP362 T12441267
                 410671300 FZRANO =
2018-12-13 22:56 METAR KPQI 140356Z AUTO 00000KT 10SM CLR M23/M26 A3045 RMK AO2 SLP364 T12331256
                 FZRANO =
2018-12-13 21:56 METAR KPQI 140256Z AUTO 00000KT 10SM CLR M22/M24 A3047 RMK AO2 SLP367 T12171239
                 55005 FZRANO =
2018-12-13 20:56 METAR KPQI 140156Z AUTO VRB04KT 10SM CLR M21/M23 A3047 RMK AO2 SLP369 T12111228
                 FZRANO =
2018-12-13 19:56 METAR KPQI 140056Z AUTO 00000KT 10SM CLR M20/M22 A3047 RMK AO2 SLP371 T12001217
                 FZRANO =

Support USWX by starting your Amazon purchase here.